createdAt,value
2018-07-13T00:01:32.558Z,9.50
2018-07-13T00:04:01.135Z,9.50
2018-07-13T00:06:29.706Z,11.77
2018-07-13T00:08:58.410Z,7.83
2018-07-13T00:11:26.872Z,9.23
2018-07-13T00:14:13.952Z,8.67
2018-07-13T00:16:43.182Z,9.50
2018-07-13T00:19:12.309Z,11.57
2018-07-13T00:21:40.823Z,9.47
2018-07-13T00:24:09.508Z,9.50
2018-07-13T00:26:38.758Z,9.13
2018-07-13T00:29:07.524Z,9.77
2018-07-13T00:31:36.796Z,9.07
2018-07-13T00:34:05.390Z,9.27
2018-07-13T00:36:33.841Z,11.73
2018-07-13T00:39:02.627Z,12.27
2018-07-13T00:41:31.089Z,8.60
2018-07-13T00:43:59.656Z,8.87
2018-07-13T00:46:28.142Z,9.50
2018-07-13T00:48:56.576Z,10.40
2018-07-13T00:51:25.044Z,10.63
2018-07-13T00:53:53.583Z,9.37
2018-07-13T00:56:22.120Z,9.93
2018-07-13T00:58:50.526Z,9.63
2018-07-13T01:01:19.002Z,10.23
2018-07-13T01:03:47.484Z,9.23
2018-07-13T01:06:15.964Z,9.70
2018-07-13T01:08:44.735Z,9.93
2018-07-13T01:11:13.292Z,9.70
2018-07-13T01:13:41.761Z,9.23
2018-07-13T01:16:10.220Z,8.87
2018-07-13T01:18:38.708Z,9.57
2018-07-13T01:21:07.192Z,9.97
2018-07-13T01:23:35.664Z,12.03
2018-07-13T01:26:04.165Z,9.40
2018-07-13T01:28:32.673Z,11.07
2018-07-13T01:31:01.285Z,9.73
2018-07-13T01:33:29.727Z,11.30
2018-07-13T01:35:58.204Z,9.73
2018-07-13T01:38:26.654Z,11.47
2018-07-13T01:40:55.116Z,10.77
2018-07-13T01:43:23.591Z,10.60
2018-07-13T01:45:52.170Z,11.63
2018-07-13T01:48:20.649Z,10.67
2018-07-13T01:50:49.131Z,10.73
2018-07-13T01:53:17.576Z,10.90
2018-07-13T01:55:46.941Z,12.80
2018-07-13T01:58:15.333Z,10.23
2018-07-13T02:00:43.726Z,10.80
2018-07-13T02:03:12.184Z,10.90
2018-07-13T02:05:40.596Z,13.80
2018-07-13T02:08:08.710Z,10.73
2018-07-13T02:10:37.800Z,10.53
2018-07-13T02:13:06.237Z,13.53
2018-07-13T02:15:34.664Z,12.47
2018-07-13T02:18:03.154Z,12.97
2018-07-13T02:20:31.599Z,12.10
2018-07-13T02:23:00.010Z,12.70
2018-07-13T02:25:28.502Z,16.03
2018-07-13T02:27:56.880Z,11.90
2018-07-13T02:30:25.400Z,11.60
2018-07-13T02:32:53.901Z,12.43
2018-07-13T02:35:22.347Z,11.73
2018-07-13T02:37:51.344Z,12.83
2018-07-13T02:40:19.750Z,11.87
2018-07-13T02:42:48.198Z,12.13
2018-07-13T02:45:16.671Z,12.70
2018-07-13T02:47:45.119Z,12.50
2018-07-13T02:50:13.634Z,13.80
2018-07-13T02:52:42.039Z,14.17
2018-07-13T02:55:10.498Z,13.80
2018-07-13T02:57:39.042Z,13.57
2018-07-13T03:00:07.588Z,14.77
2018-07-13T03:02:36.108Z,13.73
2018-07-13T03:05:04.705Z,14.40
2018-07-13T03:07:33.120Z,14.77
2018-07-13T03:10:01.659Z,15.80
2018-07-13T03:12:30.160Z,16.97
2018-07-13T03:14:58.630Z,14.80
2018-07-13T03:17:27.165Z,18.00
2018-07-13T03:19:55.757Z,18.40
2018-07-13T03:22:24.306Z,14.07
2018-07-13T03:24:52.774Z,15.07
2018-07-13T03:27:21.213Z,14.43
2018-07-13T03:29:49.716Z,16.03
2018-07-13T03:32:18.414Z,15.33
2018-07-13T03:34:46.975Z,15.67
2018-07-13T03:37:15.461Z,14.30
2018-07-13T03:39:43.891Z,15.20
2018-07-13T03:42:12.333Z,14.60
2018-07-13T03:44:40.749Z,14.27
2018-07-13T03:47:09.231Z,15.30
2018-07-13T03:49:37.621Z,14.23
2018-07-13T03:52:06.722Z,14.37
2018-07-13T03:54:35.201Z,15.00
2018-07-13T03:57:03.721Z,14.47
2018-07-13T03:59:32.166Z,15.67
2018-07-13T04:02:00.673Z,16.53
2018-07-13T04:04:29.206Z,15.03
2018-07-13T04:06:57.768Z,13.23
2018-07-13T04:09:26.310Z,12.30
2018-07-13T04:11:54.788Z,12.80
2018-07-13T04:14:23.481Z,12.33
2018-07-13T04:16:51.971Z,12.27
2018-07-13T04:19:20.446Z,11.63
2018-07-13T04:21:48.931Z,12.03
2018-07-13T04:24:17.535Z,12.50
2018-07-13T04:26:47.461Z,12.90
2018-07-13T04:29:16.004Z,12.60
2018-07-13T04:31:44.617Z,12.33
2018-07-13T04:34:13.108Z,18.20
2018-07-13T04:36:41.645Z,12.60
2018-07-13T04:39:11.666Z,11.47
2018-07-13T04:41:40.220Z,12.53
2018-07-13T04:44:08.931Z,13.73
2018-07-13T04:46:37.478Z,14.87
2018-07-13T04:49:05.688Z,12.97
2018-07-13T04:51:34.213Z,12.77
2018-07-13T04:54:02.755Z,12.33
2018-07-13T04:56:31.560Z,11.33
2018-07-13T04:59:00.195Z,12.73
2018-07-13T05:01:28.346Z,12.30
2018-07-13T05:03:57.067Z,12.17
2018-07-13T05:06:25.585Z,13.97
2018-07-13T05:08:54.063Z,11.73
2018-07-13T05:11:22.713Z,11.60
2018-07-13T05:13:51.332Z,11.53
2018-07-13T05:16:20.465Z,11.77
2018-07-13T05:18:48.965Z,15.80
2018-07-13T05:21:17.400Z,12.17
2018-07-13T05:23:45.896Z,11.13
2018-07-13T05:26:14.589Z,11.17
2018-07-13T05:28:43.233Z,10.73
2018-07-13T05:31:11.827Z,10.73
2018-07-13T05:33:40.387Z,10.40
2018-07-13T05:36:09.122Z,11.10
2018-07-13T05:38:37.784Z,9.50
2018-07-13T05:41:06.329Z,9.73
2018-07-13T05:43:34.838Z,17.47
2018-07-13T05:46:03.369Z,11.30
2018-07-13T05:48:32.792Z,10.80
2018-07-13T05:51:01.272Z,12.90
2018-07-13T05:53:29.784Z,14.27
2018-07-13T05:55:58.293Z,12.40
2018-07-13T05:58:26.863Z,12.37
2018-07-13T06:00:55.402Z,12.83
2018-07-13T06:03:24.152Z,13.43
2018-07-13T06:05:52.652Z,10.80
2018-07-13T06:08:21.272Z,10.60
2018-07-13T06:10:50.125Z,10.17
2018-07-13T06:13:18.304Z,9.70
2018-07-13T06:15:46.810Z,12.57
2018-07-13T06:18:15.429Z,9.20
2018-07-13T06:20:44.049Z,9.67
2018-07-13T06:23:12.496Z,14.60
2018-07-13T06:25:41.403Z,12.60
2018-07-13T06:28:10.143Z,9.40
2018-07-13T06:30:38.675Z,13.43
2018-07-13T06:33:07.717Z,15.73
2018-07-13T06:35:36.347Z,14.73
2018-07-13T06:38:05.153Z,14.37
2018-07-13T06:40:33.708Z,10.33
2018-07-13T06:43:02.231Z,11.20
2018-07-13T06:45:30.772Z,11.60
2018-07-13T06:47:59.243Z,7.67
2018-07-13T06:50:27.739Z,7.87
2018-07-13T06:52:56.296Z,9.70
2018-07-13T06:55:24.876Z,12.83
2018-07-13T06:58:04.672Z,8.73
2018-07-13T07:01:05.037Z,11.87
2018-07-13T07:03:35.980Z,11.77
2018-07-13T07:06:07.819Z,6.97
2018-07-13T07:08:37.517Z,6.37
2018-07-13T07:11:05.718Z,6.07
2018-07-13T07:13:37.287Z,8.40
2018-07-13T07:16:05.789Z,7.27
2018-07-13T07:18:34.337Z,7.37
2018-07-13T07:21:02.844Z,8.10
2018-07-13T07:23:32.206Z,7.80
2018-07-13T07:26:02.225Z,7.27
2018-07-13T07:28:30.833Z,6.53
2018-07-13T07:31:00.412Z,6.60
2018-07-13T07:33:28.876Z,8.97
2018-07-13T07:35:57.465Z,5.57
2018-07-13T07:38:26.191Z,8.17
2018-07-13T07:40:54.759Z,6.57
2018-07-13T07:43:23.247Z,6.73
2018-07-13T07:45:51.729Z,6.30
2018-07-13T07:48:20.250Z,5.73
2018-07-13T07:50:48.693Z,5.90
2018-07-13T07:53:17.162Z,5.63
2018-07-13T07:55:46.341Z,5.03
2018-07-13T07:58:14.855Z,5.07
2018-07-13T08:00:43.390Z,4.70
2018-07-13T08:03:11.967Z,4.63
2018-07-13T08:05:40.601Z,6.23
2018-07-13T08:08:09.264Z,4.87
2018-07-13T08:10:37.737Z,4.93
2018-07-13T08:13:06.682Z,4.63
2018-07-13T08:15:35.209Z,5.53
2018-07-13T08:18:03.771Z,5.30
2018-07-13T08:20:36.100Z,4.93
2018-07-13T08:23:08.362Z,9.00
2018-07-13T08:25:38.445Z,9.50
2018-07-13T08:28:07.979Z,7.00
2018-07-13T08:30:40.076Z,9.97
2018-07-13T08:33:08.853Z,4.73
2018-07-13T08:35:37.515Z,6.83
2018-07-13T08:38:06.653Z,5.33
2018-07-13T08:40:35.552Z,4.33
2018-07-13T08:43:04.193Z,7.87
2018-07-13T08:45:32.641Z,7.37
2018-07-13T08:48:01.773Z,4.77
2018-07-13T08:50:30.412Z,44.73
2018-07-13T08:52:59.537Z,8.83
2018-07-13T08:55:28.221Z,5.13
2018-07-13T08:57:56.852Z,4.53
2018-07-13T09:00:25.401Z,5.07
2018-07-13T09:02:54.048Z,5.00
2018-07-13T09:05:22.636Z,5.10
2018-07-13T09:07:51.455Z,4.13
2018-07-13T09:10:19.950Z,6.20
2018-07-13T09:12:48.488Z,4.23
2018-07-13T09:15:16.778Z,4.80
2018-07-13T09:17:45.369Z,4.70
2018-07-13T09:20:14.274Z,4.67
2018-07-13T09:22:42.840Z,4.73
2018-07-13T09:25:11.960Z,5.70
2018-07-13T09:27:41.009Z,5.27
2018-07-13T09:30:10.738Z,5.23
2018-07-13T09:32:39.356Z,5.60
2018-07-13T09:35:08.030Z,5.50
2018-07-13T09:37:36.678Z,5.10
2018-07-13T09:40:05.530Z,5.00
2018-07-13T09:42:34.065Z,5.57
2018-07-13T09:45:02.608Z,5.27
2018-07-13T09:47:31.187Z,4.97
2018-07-13T09:49:59.822Z,6.87
2018-07-13T09:52:28.381Z,6.70
2018-07-13T09:54:57.296Z,4.87
2018-07-13T09:57:26.198Z,6.00
2018-07-13T09:59:55.141Z,4.47
2018-07-13T10:02:23.928Z,4.90
2018-07-13T10:04:52.458Z,8.23
2018-07-13T10:07:21.006Z,5.10
2018-07-13T10:09:49.507Z,5.10
2018-07-13T10:12:17.994Z,6.37
2018-07-13T10:14:46.534Z,5.83
2018-07-13T10:17:14.769Z,5.73
2018-07-13T10:19:43.439Z,4.63
2018-07-13T10:22:13.851Z,4.63
2018-07-13T10:24:43.079Z,4.63
2018-07-13T10:27:11.673Z,6.17
2018-07-13T10:29:44.177Z,5.40
2018-07-13T10:32:12.882Z,8.80
2018-07-13T10:34:42.092Z,3.50
2018-07-13T10:37:10.626Z,4.23
2018-07-13T10:39:39.130Z,3.70
2018-07-13T10:42:07.658Z,4.80
2018-07-13T10:44:36.183Z,4.87
2018-07-13T10:47:04.730Z,3.57
2018-07-13T10:49:33.234Z,5.83
2018-07-13T10:52:01.984Z,5.20
2018-07-13T10:54:30.507Z,4.37
2018-07-13T10:56:59.074Z,4.90
2018-07-13T10:59:27.527Z,3.87
2018-07-13T11:01:56.060Z,5.47
2018-07-13T11:04:24.548Z,4.60
2018-07-13T11:06:53.211Z,6.00
2018-07-13T11:09:21.653Z,6.57
2018-07-13T11:11:50.124Z,4.60
2018-07-13T11:14:18.706Z,6.97
2018-07-13T11:16:47.141Z,4.20
2018-07-13T11:19:15.669Z,9.80
2018-07-13T11:21:44.186Z,4.80
2018-07-13T11:24:12.678Z,8.50
2018-07-13T11:26:41.200Z,4.63
2018-07-13T11:29:09.874Z,5.40
2018-07-13T11:31:38.410Z,4.00
2018-07-13T11:34:06.947Z,4.70
2018-07-13T11:36:35.463Z,5.30
2018-07-13T11:39:04.160Z,7.30
2018-07-13T11:41:32.671Z,9.07
2018-07-13T11:44:01.157Z,4.10
2018-07-13T11:46:29.388Z,6.03
2018-07-13T11:48:57.978Z,5.83
2018-07-13T11:51:26.532Z,6.73
2018-07-13T11:53:55.148Z,5.13
2018-07-13T11:56:23.752Z,5.43
2018-07-13T11:58:52.349Z,3.83
2018-07-13T12:01:20.864Z,3.33
2018-07-13T12:03:49.404Z,3.93
2018-07-13T12:06:18.027Z,5.97
2018-07-13T12:08:46.621Z,5.00
2018-07-13T12:11:15.220Z,22.93
2018-07-13T12:13:44.207Z,4.57
2018-07-13T12:16:12.790Z,7.03
2018-07-13T12:18:41.473Z,9.23
2018-07-13T12:21:09.977Z,3.40
2018-07-13T12:23:38.655Z,5.57
2018-07-13T12:26:07.269Z,3.50
2018-07-13T12:28:35.832Z,3.27
2018-07-13T12:31:04.389Z,2.80
2018-07-13T12:33:32.988Z,2.90
2018-07-13T12:36:01.526Z,4.03
2018-07-13T12:38:30.070Z,4.90
2018-07-13T12:40:58.585Z,2.80
2018-07-13T12:43:27.138Z,3.40
2018-07-13T12:45:55.727Z,2.87
2018-07-13T12:48:25.092Z,3.10
2018-07-13T12:50:53.677Z,4.00
2018-07-13T12:53:22.331Z,6.23
2018-07-13T12:55:50.922Z,3.50
2018-07-13T12:58:19.504Z,3.37
2018-07-13T13:00:48.202Z,5.33
2018-07-13T13:03:16.833Z,3.10
2018-07-13T13:05:45.309Z,3.37
2018-07-13T13:08:13.775Z,3.30
2018-07-13T13:10:42.386Z,5.97
2018-07-13T13:13:10.858Z,2.73
2018-07-13T13:15:39.314Z,3.93
2018-07-13T13:18:07.764Z,3.00
2018-07-13T13:20:36.221Z,3.20
2018-07-13T13:23:04.769Z,3.53
2018-07-13T13:25:33.415Z,5.13
2018-07-13T13:28:01.912Z,3.57
2018-07-13T13:30:30.497Z,4.03
2018-07-13T13:32:59.010Z,8.10
2018-07-13T13:35:27.507Z,3.57
2018-07-13T13:37:56.206Z,5.00
2018-07-13T13:40:24.850Z,4.13
2018-07-13T13:42:53.340Z,4.20
2018-07-13T13:45:21.813Z,4.37
2018-07-13T13:47:50.274Z,4.07
2018-07-13T13:50:18.844Z,4.83
2018-07-13T13:52:47.480Z,4.23
2018-07-13T13:55:16.432Z,4.97
2018-07-13T13:57:45.024Z,5.50
2018-07-13T14:00:13.541Z,5.03
2018-07-13T14:02:42.114Z,4.63
2018-07-13T14:05:10.746Z,4.33
2018-07-13T14:07:39.402Z,6.17
2018-07-13T14:10:08.383Z,5.77
2018-07-13T14:12:37.072Z,3.93
2018-07-13T14:15:05.901Z,4.97
2018-07-13T14:17:34.787Z,4.10
2018-07-13T14:20:03.395Z,5.40
2018-07-13T14:22:31.888Z,6.50
2018-07-13T14:25:00.437Z,7.97
2018-07-13T14:27:29.020Z,5.63
2018-07-13T14:29:57.623Z,4.80
2018-07-13T14:32:26.122Z,7.20
2018-07-13T14:34:54.636Z,8.67
2018-07-13T14:37:22.775Z,5.37
2018-07-13T14:39:51.299Z,6.20
2018-07-13T14:42:19.741Z,5.43
2018-07-13T14:44:48.388Z,4.37
2018-07-13T14:47:17.011Z,4.77
2018-07-13T14:49:45.517Z,3.80
2018-07-13T14:52:13.980Z,5.47
2018-07-13T14:54:42.591Z,4.97
2018-07-13T14:57:11.306Z,4.03
2018-07-13T14:59:39.908Z,4.10
2018-07-13T15:02:08.480Z,4.03
2018-07-13T15:04:37.119Z,3.93
2018-07-13T15:07:05.326Z,5.67
2018-07-13T15:09:33.971Z,4.77
2018-07-13T15:12:02.567Z,3.90
2018-07-13T15:14:31.122Z,9.17
2018-07-13T15:16:59.609Z,3.80
2018-07-13T15:19:28.129Z,4.30
2018-07-13T15:21:56.726Z,4.10
2018-07-13T15:24:25.245Z,5.00
2018-07-13T15:26:53.818Z,3.90
2018-07-13T15:29:22.565Z,5.47
2018-07-13T15:31:51.164Z,4.47
2018-07-13T15:34:19.754Z,4.20
2018-07-13T15:36:48.487Z,4.67
2018-07-13T15:39:17.193Z,3.93
2018-07-13T15:41:46.115Z,3.50
2018-07-13T15:44:14.827Z,4.00
2018-07-13T15:46:43.485Z,3.60
2018-07-13T15:49:12.116Z,4.23
2018-07-13T15:51:40.797Z,4.13
2018-07-13T15:54:09.443Z,4.30
2018-07-13T15:56:38.470Z,4.47
2018-07-13T15:59:07.190Z,4.03
2018-07-13T16:01:36.414Z,4.03
2018-07-13T16:04:05.937Z,4.43
2018-07-13T16:06:34.431Z,4.13
2018-07-13T16:09:03.701Z,5.70
2018-07-13T16:11:32.294Z,4.90
2018-07-13T16:14:00.957Z,3.93
2018-07-13T16:16:29.781Z,6.43
2018-07-13T16:18:58.400Z,3.83
2018-07-13T16:21:26.763Z,10.43
2018-07-13T16:23:55.551Z,6.53
2018-07-13T16:26:24.506Z,4.30
2018-07-13T16:28:53.449Z,3.50
2018-07-13T16:31:21.905Z,3.47
2018-07-13T16:33:50.484Z,4.27
2018-07-13T16:36:19.129Z,4.33
2018-07-13T16:38:47.922Z,4.73
2018-07-13T16:41:16.492Z,4.63
2018-07-13T16:43:45.671Z,8.60
2018-07-13T16:46:14.200Z,3.73
2018-07-13T16:48:42.855Z,5.03
2018-07-13T16:51:11.547Z,6.10
2018-07-13T16:53:40.163Z,5.20
2018-07-13T16:56:08.633Z,4.77
2018-07-13T16:58:37.141Z,6.60
2018-07-13T17:01:05.983Z,3.67
2018-07-13T17:03:34.714Z,3.93
2018-07-13T17:06:03.483Z,3.60
2018-07-13T17:08:32.160Z,5.83
2018-07-13T17:11:00.815Z,4.03
2018-07-13T17:13:29.615Z,3.63
2018-07-13T17:15:58.276Z,6.60
2018-07-13T17:18:26.802Z,7.07
2018-07-13T17:20:55.518Z,4.57
2018-07-13T17:23:24.079Z,5.47
2018-07-13T17:25:52.812Z,3.63
2018-07-13T17:28:21.378Z,4.73
2018-07-13T17:30:49.992Z,4.27
2018-07-13T17:33:18.810Z,6.07
2018-07-13T17:35:47.562Z,3.77
2018-07-13T17:38:16.276Z,6.50
2018-07-13T17:40:45.067Z,4.43
2018-07-13T17:43:13.694Z,7.40
2018-07-13T17:45:42.469Z,5.50
2018-07-13T17:48:11.164Z,5.33
2018-07-13T17:50:40.022Z,7.33
2018-07-13T17:53:08.609Z,6.80
2018-07-13T17:55:37.373Z,6.77
2018-07-13T17:58:06.022Z,6.27
2018-07-13T18:00:34.611Z,4.67
2018-07-13T18:03:03.246Z,4.70
2018-07-13T18:05:31.960Z,4.73
2018-07-13T18:08:01.149Z,5.17
2018-07-13T18:10:29.996Z,4.27
2018-07-13T18:12:59.137Z,4.20
2018-07-13T18:15:27.770Z,5.30
2018-07-13T18:17:56.886Z,5.00
2018-07-13T18:20:25.455Z,6.47
2018-07-13T18:22:54.231Z,6.00
2018-07-13T18:25:23.054Z,11.30
2018-07-13T18:27:51.934Z,8.23
2018-07-13T18:30:20.658Z,6.07
2018-07-13T18:32:49.334Z,5.30
2018-07-13T18:35:18.014Z,6.03
2018-07-13T18:37:46.978Z,4.70
2018-07-13T18:40:15.812Z,4.87
2018-07-13T18:42:44.604Z,5.10
2018-07-13T18:45:13.223Z,5.37
2018-07-13T18:47:41.907Z,5.23
2018-07-13T18:50:10.720Z,5.00
2018-07-13T18:52:39.680Z,6.10
2018-07-13T18:55:08.613Z,7.20
2018-07-13T18:57:37.636Z,4.40
2018-07-13T19:00:06.611Z,7.53
2018-07-13T19:02:36.181Z,4.80
2018-07-13T19:05:05.730Z,7.03
2018-07-13T19:07:34.648Z,6.07
2018-07-13T19:10:03.331Z,5.03
2018-07-13T19:12:32.393Z,6.53
2018-07-13T19:15:00.999Z,5.60
2018-07-13T19:17:29.860Z,5.47
2018-07-13T19:19:58.737Z,5.10
2018-07-13T19:22:27.451Z,6.70
2018-07-13T19:24:56.355Z,8.53
2018-07-13T19:27:25.148Z,5.37
2018-07-13T19:29:54.283Z,6.87
2018-07-13T19:32:23.374Z,5.20
2018-07-13T19:34:52.231Z,5.93
2018-07-13T19:37:21.051Z,6.57
2018-07-13T19:39:49.764Z,6.33
2018-07-13T19:42:18.567Z,8.20
2018-07-13T19:44:47.587Z,6.30
2018-07-13T19:47:16.427Z,7.23
2018-07-13T19:49:45.357Z,18.63
2018-07-13T19:52:14.284Z,8.37
2018-07-13T19:54:43.798Z,6.67
2018-07-13T19:57:12.935Z,7.80
2018-07-13T19:59:41.862Z,12.83
2018-07-13T20:02:10.551Z,11.00
2018-07-13T20:04:39.451Z,6.00
2018-07-13T20:07:08.265Z,6.37
2018-07-13T20:09:36.919Z,7.53
2018-07-13T20:12:05.581Z,6.80
2018-07-13T20:14:34.496Z,7.07
2018-07-13T20:17:03.663Z,7.37
2018-07-13T20:19:32.869Z,6.93
2018-07-13T20:22:01.949Z,12.40
2018-07-13T20:24:31.233Z,7.63
2018-07-13T20:27:00.009Z,6.93
2018-07-13T20:29:28.817Z,7.77
2018-07-13T20:31:58.242Z,9.17
2018-07-13T20:34:26.976Z,6.53
2018-07-13T20:36:55.881Z,10.40
2018-07-13T20:39:24.685Z,7.07
2018-07-13T20:41:53.775Z,7.27
2018-07-13T20:44:22.451Z,7.00
2018-07-13T20:46:51.192Z,12.97
2018-07-13T20:49:19.980Z,7.37
2018-07-13T20:51:48.888Z,12.00
2018-07-13T20:54:17.789Z,8.27
2018-07-13T20:56:46.530Z,10.57
2018-07-13T20:59:15.286Z,7.87
2018-07-13T21:01:44.087Z,8.00
2018-07-13T21:04:13.130Z,7.37
2018-07-13T21:06:41.738Z,8.47
2018-07-13T21:09:10.316Z,9.13
2018-07-13T21:11:39.240Z,13.20
2018-07-13T21:14:08.137Z,11.37
2018-07-13T21:16:37.077Z,9.30
2018-07-13T21:19:05.747Z,8.80
2018-07-13T21:21:34.371Z,12.47
2018-07-13T21:24:03.023Z,8.27
2018-07-13T21:26:31.723Z,12.23
2018-07-13T21:29:00.394Z,9.57
2018-07-13T21:31:28.978Z,15.40
2018-07-13T21:33:57.613Z,11.83
2018-07-13T21:36:26.152Z,9.90
2018-07-13T21:38:54.750Z,12.73
2018-07-13T21:41:23.464Z,13.07
2018-07-13T21:43:52.204Z,9.10
2018-07-13T21:46:21.664Z,9.00
2018-07-13T21:48:50.234Z,14.40
2018-07-13T21:51:18.812Z,10.80
2018-07-13T21:53:47.509Z,10.07
2018-07-13T21:56:16.231Z,10.47
2018-07-13T21:58:44.782Z,9.50
2018-07-13T22:01:13.630Z,9.80
2018-07-13T22:03:42.278Z,10.43
2018-07-13T22:06:10.786Z,10.07
2018-07-13T22:08:39.444Z,11.20
2018-07-13T22:11:08.080Z,12.20
2018-07-13T22:13:36.617Z,9.10
2018-07-13T22:16:05.289Z,10.07
2018-07-13T22:18:33.930Z,10.67
2018-07-13T22:21:02.722Z,10.70
2018-07-13T22:23:31.297Z,10.10
2018-07-13T22:25:59.815Z,11.23
2018-07-13T22:28:28.380Z,9.73
2018-07-13T22:30:57.078Z,11.10
2018-07-13T22:33:25.685Z,10.80
2018-07-13T22:35:54.312Z,10.43
2018-07-13T22:38:22.879Z,11.27
2018-07-13T22:40:51.460Z,10.63
2018-07-13T22:43:21.112Z,10.43
2018-07-13T22:45:49.562Z,13.70
2018-07-13T22:48:18.033Z,11.60
2018-07-13T22:50:46.522Z,10.87
2018-07-13T22:53:15.059Z,11.13
2018-07-13T22:55:43.921Z,12.53
2018-07-13T22:58:12.518Z,10.50
2018-07-13T23:00:40.714Z,11.80
2018-07-13T23:03:09.182Z,10.63
2018-07-13T23:05:37.675Z,9.60
2018-07-13T23:08:06.205Z,11.00
2018-07-13T23:10:34.709Z,10.40
2018-07-13T23:13:03.403Z,11.97
2018-07-13T23:15:32.027Z,18.60
2018-07-13T23:18:00.644Z,10.67
2018-07-13T23:20:29.339Z,11.00
2018-07-13T23:22:57.878Z,12.20
2018-07-13T23:25:26.384Z,12.13
2018-07-13T23:27:54.923Z,11.70
2018-07-13T23:30:23.543Z,13.77
2018-07-13T23:32:52.069Z,12.13
2018-07-13T23:35:20.751Z,12.67
2018-07-13T23:37:49.337Z,12.47
2018-07-13T23:40:17.946Z,13.93
2018-07-13T23:42:46.461Z,12.00
2018-07-13T23:45:14.963Z,11.00
2018-07-13T23:47:43.542Z,11.40
2018-07-13T23:50:12.149Z,10.73
2018-07-13T23:52:40.705Z,11.03
2018-07-13T23:55:09.288Z,10.20
2018-07-13T23:57:37.840Z,10.87
